Cedar Fort, Utah
Current Conditions -  °F | °C
As of 3:51 PM on Wednesday 22 Oct 2014 (Local Time) from KPVU Reporting Station
Few Clouds Few Clouds  
Wind Chill: 15°   Ceiling: Unl
Heat Index: 15°   Visibility: 10mi
Dew Point:   Wind: 3mph
Humidity: 36%   Direction: 250°WSW
Pressure: 30.16"   Gusts: NA
Location:  40.1341°N, 112.043°W
Report Text: KPVU 222151Z 25003KT 10SM FEW120 15/00 A3016
Loading
Personal Weather Stations






























Interactive Weather Map
Tropical Storm Tracking
New forecast layout! Learn more

10-Day Weather Forecast

Advertisements
Track Severe Weather on mobile